CheckWX is a tool to help pilots better visualize weather data.  It is not intended as a substitute for an official pre-flight weather briefing.

02:12:30 UTC

KSTF METAR
George M Bryan Airport
Starkville, Mississippi, USA
Current

18 mins ago

KSTF 180155Z AUTO 34006KT 10SM SCT012 OVC065 07/06 A2997 RMK AO2 PWINO
Observed
Feb-18 @ 01:55 UTC
Wind
  • 340° at 6 KTS
Visibility
10 SM
Flight Rules
VFR
Cloud Levels
  • Scattered at 1,200' AGL
  • Overcast at 6,500' AGL
Temperature
C / 45°F
Dewpoint
C / 43°F
Humidity
93%
Altimeter
29.97" Hg
Pressure
1014.92 hPa
Previous

38 mins ago

KSTF 180135Z AUTO 33004KT 10SM SCT009 SCT012 OVC065 07/07 A2996 RMK AO2 PWINO
Observed
Feb-18 @ 01:35 UTC
Wind
  • 330° at 4 KTS
Visibility
10 SM
Flight Rules
VFR
Cloud Levels
  • Scattered at 900' AGL
  • Scattered at 1,200' AGL
  • Overcast at 6,500' AGL
Temperature
C / 45°F
Dewpoint
C / 45°F
Humidity
100%
Altimeter
29.96" Hg
Pressure
1014.52 hPa
Previous

58 mins ago

KSTF 180115Z AUTO 34006KT 10SM BKN007 OVC011 07/07 A2994 RMK AO2 PWINO
Observed
Feb-18 @ 01:15 UTC
Wind
  • 340° at 6 KTS
Visibility
10 SM
Flight Rules
IFR
Cloud Levels
  • Broken at 700' AGL
  • Overcast at 1,100' AGL
Temperature
C / 45°F
Dewpoint
C / 45°F
Humidity
100%
Altimeter
29.94" Hg
Pressure
1013.92 hPa